Impacts TAF Board
For situational awareness. Not to be used for flight planning purposes.
IDs:

KPHX - Phoenix/Sky Harbor, AZ, US

Issued at 0716 UTC 07 Dec 2022
Updated at 0731 UTC 07 Dec 2022
Potential Impact None Slight Moderate High
Time0651Z 07/08Z 07/09Z 07/10Z 07/11Z 07/12Z 07/13Z 07/14Z 07/15Z 07/16Z 07/17Z 07/18Z 07/19Z 07/20Z>>
Type OBS PRVL PRVL PRVL PRVL PRVL PRVL PRVL PRVL PRVL PRVL PRVL PRVL PRVL
VIS 10 >6 >6 >6 >6 >6 >6 >6 >6 >6 >6 >6 >6 >6
CIG 43 40 50 50 50 50 50 50 50 60 60 60 -- --
Cover BKN BKN BKN BKN BKN BKN BKN BKN BKN BKN BKN BKN SCT SCT
FltCat VFR VFR VFR VFR VFR VFR VFR VFR VFR VFR VFR VFR VFR VFR
WX -- -- -- -- -- -- -- -- -- -- -- -- -- --
WDir VRB VRB 120 120 120 120 120 120 120 170 170 170 240 240
WSpd 0 3 4 4 4 4 4 4 4 6 6 6 7 7
WGst -- -- -- -- -- -- -- -- -- -- -- -- -- --
WSHgt -- -- -- -- -- -- -- -- -- -- -- -- -- --
WSDir -- -- -- -- -- -- -- -- -- -- -- -- -- --
WSSpd -- -- -- -- -- -- -- -- -- -- -- -- -- --
R07/25
XWnd VRB VRB -2 -2 -2 -2 -2 -2 -2 -6 -6 -6 -4 -4
HWnd VRB VRB 3 3 3 3 3 3 3 1 1 1 -6 -6
R08/26
XWnd VRB VRB -2 -2 -2 -2 -2 -2 -2 -6 -6 -6 -4 -4
HWnd VRB VRB 3 3 3 3 3 3 3 1 1 1 -6 -6
Raw TAF
KPHX 070716Z 0707/0812 VRB03KT P6SM BKN040 BKN200
  FM070900 12004KT P6SM BKN050 BKN120
  FM071600 17006KT P6SM BKN060 BKN120
  FM071900 24007KT P6SM SCT060 SCT120
  FM080500 VRB03KT P6SM SKC


Raw METAR
KPHX 070651Z 00000KT 10SM BKN043 BKN050 BKN200 14/12 A3001 RMK AO2 SLP153 T01440117 402000128
KPHX 070551Z 23003KT 10SM BKN043 BKN050 BKN200 14/11 A3000 RMK AO2 SLP150 T01440111 10189 20139 53015
KPHX 070451Z 25004KT 10SM FEW200 FEW250 15/12 A2998 RMK AO2 SLP145 T01500117

METAR Board
Radar Display
Forecast Discussion
For situational awareness. Not to be used for flight planning purposes.